sensor_id;sensor_type;location;lat;lon;timestamp;P1;durP1;ratioP1;P2;durP2;ratioP2
21233;SDS011;10774;42.178;26.578;2023-12-04T00:01:46;1.45;;;0.82;;
21233;SDS011;10774;42.178;26.578;2023-12-04T00:04:12;2.40;;;1.00;;
21233;SDS011;10774;42.178;26.578;2023-12-04T00:06:37;1.95;;;1.08;;
21233;SDS011;10774;42.178;26.578;2023-12-04T00:09:03;4.32;;;1.60;;
21233;SDS011;10774;42.178;26.578;2023-12-04T00:11:29;4.97;;;2.17;;
21233;SDS011;10774;42.178;26.578;2023-12-04T00:13:54;7.28;;;3.17;;
21233;SDS011;10774;42.178;26.578;2023-12-04T00:16:19;6.07;;;2.67;;
21233;SDS011;10774;42.178;26.578;2023-12-04T00:18:45;3.22;;;1.30;;
21233;SDS011;10774;42.178;26.578;2023-12-04T00:21:10;1.05;;;0.50;;
21233;SDS011;10774;42.178;26.578;2023-12-04T00:23:37;1.58;;;0.82;;
21233;SDS011;10774;42.178;26.578;2023-12-04T00:26:02;3.25;;;1.55;;
21233;SDS011;10774;42.178;26.578;2023-12-04T00:28:28;5.10;;;2.35;;
21233;SDS011;10774;42.178;26.578;2023-12-04T00:30:54;1.83;;;0.93;;
21233;SDS011;10774;42.178;26.578;2023-12-04T00:33:19;3.97;;;1.50;;
21233;SDS011;10774;42.178;26.578;2023-12-04T00:35:45;1.83;;;1.10;;
21233;SDS011;10774;42.178;26.578;2023-12-04T00:38:10;2.90;;;1.38;;
21233;SDS011;10774;42.178;26.578;2023-12-04T00:40:35;1.95;;;1.00;;
21233;SDS011;10774;42.178;26.578;2023-12-04T00:43:01;2.03;;;0.80;;
21233;SDS011;10774;42.178;26.578;2023-12-04T00:45:26;3.13;;;0.70;;
21233;SDS011;10774;42.178;26.578;2023-12-04T00:47:52;1.38;;;0.65;;
21233;SDS011;10774;42.178;26.578;2023-12-04T00:50:17;0.65;;;0.55;;
21233;SDS011;10774;42.178;26.578;2023-12-04T00:52:43;1.80;;;0.70;;
21233;SDS011;10774;42.178;26.578;2023-12-04T00:55:08;1.27;;;0.90;;
21233;SDS011;10774;42.178;26.578;2023-12-04T00:57:34;2.92;;;1.50;;
21233;SDS011;10774;42.178;26.578;2023-12-04T00:59:59;3.90;;;1.10;;
21233;SDS011;10774;42.178;26.578;2023-12-04T01:02:25;2.20;;;1.10;;
21233;SDS011;10774;42.178;26.578;2023-12-04T01:04:50;3.25;;;1.25;;
21233;SDS011;10774;42.178;26.578;2023-12-04T01:07:15;1.45;;;1.02;;
21233;SDS011;10774;42.178;26.578;2023-12-04T01:09:41;6.55;;;1.70;;
21233;SDS011;10774;42.178;26.578;2023-12-04T01:12:06;7.47;;;2.10;;
21233;SDS011;10774;42.178;26.578;2023-12-04T01:14:32;6.20;;;2.15;;
21233;SDS011;10774;42.178;26.578;2023-12-04T01:16:58;7.03;;;2.35;;
21233;SDS011;10774;42.178;26.578;2023-12-04T01:19:23;4.68;;;1.77;;
21233;SDS011;10774;42.178;26.578;2023-12-04T01:21:49;2.47;;;1.45;;
21233;SDS011;10774;42.178;26.578;2023-12-04T01:24:14;1.38;;;0.98;;
21233;SDS011;10774;42.178;26.578;2023-12-04T01:26:40;1.52;;;0.98;;
21233;SDS011;10774;42.178;26.578;2023-12-04T01:29:06;6.95;;;2.45;;
21233;SDS011;10774;42.178;26.578;2023-12-04T01:31:32;1.95;;;1.30;;
21233;SDS011;10774;42.178;26.578;2023-12-04T01:33:57;8.02;;;3.58;;
21233;SDS011;10774;42.178;26.578;2023-12-04T01:36:23;1.52;;;1.10;;
21233;SDS011;10774;42.178;26.578;2023-12-04T01:38:48;16.13;;;5.22;;
21233;SDS011;10774;42.178;26.578;2023-12-04T01:41:13;7.05;;;3.00;;
21233;SDS011;10774;42.178;26.578;2023-12-04T01:43:39;19.85;;;6.45;;
21233;SDS011;10774;42.178;26.578;2023-12-04T01:46:04;2.50;;;1.63;;
21233;SDS011;10774;42.178;26.578;2023-12-04T01:48:31;7.78;;;3.95;;
21233;SDS011;10774;42.178;26.578;2023-12-04T01:50:57;8.32;;;5.82;;
21233;SDS011;10774;42.178;26.578;2023-12-04T01:53:25;3.17;;;1.80;;
21233;SDS011;10774;42.178;26.578;2023-12-04T01:55:51;2.45;;;1.20;;
21233;SDS011;10774;42.178;26.578;2023-12-04T01:58:16;1.55;;;1.40;;
21233;SDS011;10774;42.178;26.578;2023-12-04T02:00:42;2.67;;;1.98;;
21233;SDS011;10774;42.178;26.578;2023-12-04T02:03:08;2.97;;;1.60;;
21233;SDS011;10774;42.178;26.578;2023-12-04T02:05:34;3.25;;;1.10;;
21233;SDS011;10774;42.178;26.578;2023-12-04T02:08:00;2.20;;;1.63;;
21233;SDS011;10774;42.178;26.578;2023-12-04T02:10:27;1.45;;;0.93;;
21233;SDS011;10774;42.178;26.578;2023-12-04T02:12:52;1.85;;;1.13;;
21233;SDS011;10774;42.178;26.578;2023-12-04T02:15:18;3.25;;;1.20;;
21233;SDS011;10774;42.178;26.578;2023-12-04T02:17:43;3.70;;;1.65;;
21233;SDS011;10774;42.178;26.578;2023-12-04T02:20:10;2.33;;;1.05;;
21233;SDS011;10774;42.178;26.578;2023-12-04T02:22:38;1.10;;;0.90;;
21233;SDS011;10774;42.178;26.578;2023-12-04T02:25:04;1.08;;;0.80;;
21233;SDS011;10774;42.178;26.578;2023-12-04T02:27:34;1.85;;;1.00;;
21233;SDS011;10774;42.178;26.578;2023-12-04T02:30:05;1.20;;;1.10;;
21233;SDS011;10774;42.178;26.578;2023-12-04T02:32:35;1.50;;;1.08;;
21233;SDS011;10774;42.178;26.578;2023-12-04T02:35:03;5.07;;;2.45;;
21233;SDS011;10774;42.178;26.578;2023-12-04T02:37:31;1.70;;;1.42;;
21233;SDS011;10774;42.178;26.578;2023-12-04T02:39:57;1.73;;;1.20;;
21233;SDS011;10774;42.178;26.578;2023-12-04T02:42:23;2.50;;;1.67;;
21233;SDS011;10774;42.178;26.578;2023-12-04T02:44:50;2.13;;;1.67;;
21233;SDS011;10774;42.178;26.578;2023-12-04T02:47:16;2.13;;;1.45;;
21233;SDS011;10774;42.178;26.578;2023-12-04T02:49:42;1.48;;;1.20;;
21233;SDS011;10774;42.178;26.578;2023-12-04T02:52:08;2.85;;;1.40;;
21233;SDS011;10774;42.178;26.578;2023-12-04T02:54:33;1.58;;;1.27;;
21233;SDS011;10774;42.178;26.578;2023-12-04T02:56:59;3.38;;;1.63;;
21233;SDS011;10774;42.178;26.578;2023-12-04T02:59:24;2.25;;;1.70;;
21233;SDS011;10774;42.178;26.578;2023-12-04T03:01:49;5.05;;;1.98;;
21233;SDS011;10774;42.178;26.578;2023-12-04T03:04:15;2.92;;;1.67;;
21233;SDS011;10774;42.178;26.578;2023-12-04T03:06:40;2.28;;;1.60;;
21233;SDS011;10774;42.178;26.578;2023-12-04T03:09:06;3.05;;;1.98;;
21233;SDS011;10774;42.178;26.578;2023-12-04T03:11:31;3.45;;;1.63;;
21233;SDS011;10774;42.178;26.578;2023-12-04T03:13:59;3.10;;;1.80;;
21233;SDS011;10774;42.178;26.578;2023-12-04T03:16:25;3.72;;;2.15;;
21233;SDS011;10774;42.178;26.578;2023-12-04T03:18:50;5.88;;;2.30;;
21233;SDS011;10774;42.178;26.578;2023-12-04T03:21:16;3.83;;;2.53;;
21233;SDS011;10774;42.178;26.578;2023-12-04T03:23:41;2.97;;;2.50;;
21233;SDS011;10774;42.178;26.578;2023-12-04T03:26:07;4.18;;;2.20;;
21233;SDS011;10774;42.178;26.578;2023-12-04T03:28:32;3.28;;;2.70;;
21233;SDS011;10774;42.178;26.578;2023-12-04T03:30:58;4.30;;;2.58;;
21233;SDS011;10774;42.178;26.578;2023-12-04T03:33:23;3.25;;;2.38;;
21233;SDS011;10774;42.178;26.578;2023-12-04T03:35:48;2.20;;;2.00;;
21233;SDS011;10774;42.178;26.578;2023-12-04T03:38:14;2.60;;;2.30;;
21233;SDS011;10774;42.178;26.578;2023-12-04T03:40:39;2.33;;;2.00;;
21233;SDS011;10774;42.178;26.578;2023-12-04T03:43:05;5.53;;;2.97;;
21233;SDS011;10774;42.178;26.578;2023-12-04T03:45:30;4.95;;;3.05;;
21233;SDS011;10774;42.178;26.578;2023-12-04T03:47:55;5.07;;;3.10;;
21233;SDS011;10774;42.178;26.578;2023-12-04T03:50:21;4.25;;;3.10;;
21233;SDS011;10774;42.178;26.578;2023-12-04T03:52:47;4.15;;;3.22;;
21233;SDS011;10774;42.178;26.578;2023-12-04T03:55:12;5.22;;;4.35;;
21233;SDS011;10774;42.178;26.578;2023-12-04T03:57:37;4.53;;;2.47;;
21233;SDS011;10774;42.178;26.578;2023-12-04T04:00:03;6.82;;;3.80;;
21233;SDS011;10774;42.178;26.578;2023-12-04T04:02:31;5.50;;;3.72;;
21233;SDS011;10774;42.178;26.578;2023-12-04T04:04:57;9.10;;;4.57;;
21233;SDS011;10774;42.178;26.578;2023-12-04T04:07:22;5.97;;;4.20;;
21233;SDS011;10774;42.178;26.578;2023-12-04T04:09:48;11.48;;;6.65;;
21233;SDS011;10774;42.178;26.578;2023-12-04T04:12:13;9.18;;;5.80;;
21233;SDS011;10774;42.178;26.578;2023-12-04T04:14:38;8.60;;;5.97;;
21233;SDS011;10774;42.178;26.578;2023-12-04T04:17:04;7.15;;;6.13;;
21233;SDS011;10774;42.178;26.578;2023-12-04T04:19:30;5.65;;;4.32;;
21233;SDS011;10774;42.178;26.578;2023-12-04T04:21:55;4.20;;;3.80;;
21233;SDS011;10774;42.178;26.578;2023-12-04T04:24:20;6.15;;;3.97;;
21233;SDS011;10774;42.178;26.578;2023-12-04T04:26:46;7.55;;;5.75;;
21233;SDS011;10774;42.178;26.578;2023-12-04T04:29:11;5.53;;;4.28;;
21233;SDS011;10774;42.178;26.578;2023-12-04T04:31:38;4.63;;;3.60;;
21233;SDS011;10774;42.178;26.578;2023-12-04T04:34:03;6.57;;;3.40;;
21233;SDS011;10774;42.178;26.578;2023-12-04T04:36:28;6.45;;;4.78;;
21233;SDS011;10774;42.178;26.578;2023-12-04T04:38:54;9.20;;;6.63;;
21233;SDS011;10774;42.178;26.578;2023-12-04T04:41:19;12.23;;;9.85;;
21233;SDS011;10774;42.178;26.578;2023-12-04T04:43:45;8.95;;;6.45;;
21233;SDS011;10774;42.178;26.578;2023-12-04T04:46:10;9.25;;;5.57;;
21233;SDS011;10774;42.178;26.578;2023-12-04T04:48:36;8.75;;;6.95;;
21233;SDS011;10774;42.178;26.578;2023-12-04T04:51:01;6.78;;;5.28;;
21233;SDS011;10774;42.178;26.578;2023-12-04T04:53:27;7.85;;;5.55;;
21233;SDS011;10774;42.178;26.578;2023-12-04T04:55:52;8.40;;;5.93;;
21233;SDS011;10774;42.178;26.578;2023-12-04T04:58:18;11.25;;;6.60;;
21233;SDS011;10774;42.178;26.578;2023-12-04T05:00:43;9.13;;;6.00;;
21233;SDS011;10774;42.178;26.578;2023-12-04T05:03:09;10.23;;;7.47;;
21233;SDS011;10774;42.178;26.578;2023-12-04T05:05:35;11.45;;;9.18;;
21233;SDS011;10774;42.178;26.578;2023-12-04T05:08:00;10.73;;;8.85;;
21233;SDS011;10774;42.178;26.578;2023-12-04T05:10:26;7.68;;;6.90;;
21233;SDS011;10774;42.178;26.578;2023-12-04T05:12:51;17.60;;;15.45;;
21233;SDS011;10774;42.178;26.578;2023-12-04T05:15:17;8.75;;;7.57;;
21233;SDS011;10774;42.178;26.578;2023-12-04T05:17:42;12.30;;;10.38;;
21233;SDS011;10774;42.178;26.578;2023-12-04T05:20:07;10.52;;;8.50;;
21233;SDS011;10774;42.178;26.578;2023-12-04T05:22:34;9.18;;;6.72;;
21233;SDS011;10774;42.178;26.578;2023-12-04T05:25:00;10.38;;;8.50;;
21233;SDS011;10774;42.178;26.578;2023-12-04T05:27:26;11.60;;;9.00;;
21233;SDS011;10774;42.178;26.578;2023-12-04T05:29:52;11.95;;;9.05;;
21233;SDS011;10774;42.178;26.578;2023-12-04T05:32:17;29.63;;;10.45;;
21233;SDS011;10774;42.178;26.578;2023-12-04T05:34:43;10.20;;;8.95;;
21233;SDS011;10774;42.178;26.578;2023-12-04T05:37:08;12.05;;;8.98;;
21233;SDS011;10774;42.178;26.578;2023-12-04T05:39:34;15.07;;;11.32;;
21233;SDS011;10774;42.178;26.578;2023-12-04T05:41:59;15.63;;;13.95;;
21233;SDS011;10774;42.178;26.578;2023-12-04T05:44:25;10.75;;;9.60;;
21233;SDS011;10774;42.178;26.578;2023-12-04T05:46:50;15.50;;;9.98;;
21233;SDS011;10774;42.178;26.578;2023-12-04T05:49:16;80.95;;;44.05;;
21233;SDS011;10774;42.178;26.578;2023-12-04T05:51:41;60.15;;;36.33;;
21233;SDS011;10774;42.178;26.578;2023-12-04T05:54:07;89.82;;;59.78;;
21233;SDS011;10774;42.178;26.578;2023-12-04T05:56:34;71.80;;;46.88;;
21233;SDS011;10774;42.178;26.578;2023-12-04T05:58:59;28.25;;;20.50;;
21233;SDS011;10774;42.178;26.578;2023-12-04T06:01:25;17.33;;;13.45;;
21233;SDS011;10774;42.178;26.578;2023-12-04T06:03:50;20.05;;;15.63;;
21233;SDS011;10774;42.178;26.578;2023-12-04T06:06:15;29.17;;;20.98;;
21233;SDS011;10774;42.178;26.578;2023-12-04T06:08:41;19.48;;;16.63;;
21233;SDS011;10774;42.178;26.578;2023-12-04T06:11:06;18.20;;;16.13;;
21233;SDS011;10774;42.178;26.578;2023-12-04T06:13:32;11.25;;;9.80;;
21233;SDS011;10774;42.178;26.578;2023-12-04T06:15:57;13.88;;;11.55;;
21233;SDS011;10774;42.178;26.578;2023-12-04T06:18:23;14.65;;;11.38;;
21233;SDS011;10774;42.178;26.578;2023-12-04T06:20:49;22.17;;;14.35;;
21233;SDS011;10774;42.178;26.578;2023-12-04T06:23:14;34.53;;;23.90;;
21233;SDS011;10774;42.178;26.578;2023-12-04T06:25:40;24.60;;;18.58;;
21233;SDS011;10774;42.178;26.578;2023-12-04T06:28:06;15.93;;;12.18;;
21233;SDS011;10774;42.178;26.578;2023-12-04T06:30:32;22.45;;;16.55;;
21233;SDS011;10774;42.178;26.578;2023-12-04T06:32:58;26.58;;;17.50;;
21233;SDS011;10774;42.178;26.578;2023-12-04T06:35:24;14.20;;;11.20;;
21233;SDS011;10774;42.178;26.578;2023-12-04T06:37:49;8.43;;;7.63;;
21233;SDS011;10774;42.178;26.578;2023-12-04T06:40:18;13.25;;;11.02;;
21233;SDS011;10774;42.178;26.578;2023-12-04T06:42:44;12.77;;;11.48;;
21233;SDS011;10774;42.178;26.578;2023-12-04T06:45:10;10.93;;;9.40;;
21233;SDS011;10774;42.178;26.578;2023-12-04T06:47:36;12.85;;;10.68;;
21233;SDS011;10774;42.178;26.578;2023-12-04T06:50:05;9.93;;;8.70;;
21233;SDS011;10774;42.178;26.578;2023-12-04T06:52:31;10.45;;;9.00;;
21233;SDS011;10774;42.178;26.578;2023-12-04T06:54:56;11.30;;;10.13;;
21233;SDS011;10774;42.178;26.578;2023-12-04T06:57:21;12.50;;;11.20;;
21233;SDS011;10774;42.178;26.578;2023-12-04T06:59:47;12.35;;;10.48;;
21233;SDS011;10774;42.178;26.578;2023-12-04T07:02:12;15.50;;;12.57;;
21233;SDS011;10774;42.178;26.578;2023-12-04T07:04:38;17.15;;;14.35;;
21233;SDS011;10774;42.178;26.578;2023-12-04T07:07:04;22.42;;;17.70;;
21233;SDS011;10774;42.178;26.578;2023-12-04T07:09:33;20.80;;;16.00;;
21233;SDS011;10774;42.178;26.578;2023-12-04T07:11:59;18.38;;;14.55;;
21233;SDS011;10774;42.178;26.578;2023-12-04T07:14:25;18.25;;;14.70;;
21233;SDS011;10774;42.178;26.578;2023-12-04T07:16:51;24.08;;;17.42;;
21233;SDS011;10774;42.178;26.578;2023-12-04T07:19:17;20.45;;;16.08;;
21233;SDS011;10774;42.178;26.578;2023-12-04T07:21:42;33.33;;;24.20;;
21233;SDS011;10774;42.178;26.578;2023-12-04T07:24:08;21.67;;;18.30;;
21233;SDS011;10774;42.178;26.578;2023-12-04T07:26:34;20.23;;;16.83;;
21233;SDS011;10774;42.178;26.578;2023-12-04T07:29:00;19.42;;;14.85;;
21233;SDS011;10774;42.178;26.578;2023-12-04T07:31:26;19.08;;;15.93;;
21233;SDS011;10774;42.178;26.578;2023-12-04T07:33:55;15.60;;;13.75;;
21233;SDS011;10774;42.178;26.578;2023-12-04T07:36:20;16.13;;;14.00;;
21233;SDS011;10774;42.178;26.578;2023-12-04T07:38:46;16.98;;;15.13;;
21233;SDS011;10774;42.178;26.578;2023-12-04T07:41:13;18.35;;;15.30;;
21233;SDS011;10774;42.178;26.578;2023-12-04T07:43:39;28.23;;;23.65;;
21233;SDS011;10774;42.178;26.578;2023-12-04T07:46:04;23.80;;;21.40;;
21233;SDS011;10774;42.178;26.578;2023-12-04T07:48:30;14.80;;;12.75;;
21233;SDS011;10774;42.178;26.578;2023-12-04T07:50:56;19.45;;;16.13;;
21233;SDS011;10774;42.178;26.578;2023-12-04T07:53:22;13.93;;;11.65;;
21233;SDS011;10774;42.178;26.578;2023-12-04T07:55:48;17.60;;;14.02;;
21233;SDS011;10774;42.178;26.578;2023-12-04T07:58:16;19.30;;;16.42;;
21233;SDS011;10774;42.178;26.578;2023-12-04T08:00:41;17.02;;;14.50;;
21233;SDS011;10774;42.178;26.578;2023-12-04T08:03:07;17.25;;;14.93;;
21233;SDS011;10774;42.178;26.578;2023-12-04T08:05:32;14.88;;;12.20;;
21233;SDS011;10774;42.178;26.578;2023-12-04T08:07:58;14.05;;;10.55;;
21233;SDS011;10774;42.178;26.578;2023-12-04T08:10:23;13.70;;;11.32;;
21233;SDS011;10774;42.178;26.578;2023-12-04T08:12:49;11.82;;;9.27;;
21233;SDS011;10774;42.178;26.578;2023-12-04T08:15:14;10.13;;;8.02;;
21233;SDS011;10774;42.178;26.578;2023-12-04T08:17:40;15.10;;;12.38;;
21233;SDS011;10774;42.178;26.578;2023-12-04T08:20:06;13.48;;;11.25;;
21233;SDS011;10774;42.178;26.578;2023-12-04T08:22:32;14.00;;;11.43;;
21233;SDS011;10774;42.178;26.578;2023-12-04T08:24:58;13.13;;;10.10;;
21233;SDS011;10774;42.178;26.578;2023-12-04T08:27:24;11.93;;;9.63;;
21233;SDS011;10774;42.178;26.578;2023-12-04T08:29:49;14.13;;;11.38;;
21233;SDS011;10774;42.178;26.578;2023-12-04T08:32:15;24.65;;;19.45;;
21233;SDS011;10774;42.178;26.578;2023-12-04T08:34:40;27.02;;;22.77;;
21233;SDS011;10774;42.178;26.578;2023-12-04T08:37:06;37.67;;;28.38;;
21233;SDS011;10774;42.178;26.578;2023-12-04T08:39:31;24.33;;;16.75;;
21233;SDS011;10774;42.178;26.578;2023-12-04T08:41:57;25.92;;;19.05;;
21233;SDS011;10774;42.178;26.578;2023-12-04T08:44:22;12.65;;;11.10;;
21233;SDS011;10774;42.178;26.578;2023-12-04T08:46:48;13.77;;;11.52;;
21233;SDS011;10774;42.178;26.578;2023-12-04T08:49:14;26.25;;;22.48;;
21233;SDS011;10774;42.178;26.578;2023-12-04T08:51:39;63.35;;;46.03;;
21233;SDS011;10774;42.178;26.578;2023-12-04T08:54:06;79.15;;;55.60;;
21233;SDS011;10774;42.178;26.578;2023-12-04T08:56:32;18.73;;;13.50;;
21233;SDS011;10774;42.178;26.578;2023-12-04T08:58:57;13.20;;;9.30;;
21233;SDS011;10774;42.178;26.578;2023-12-04T09:01:23;13.98;;;10.55;;
21233;SDS011;10774;42.178;26.578;2023-12-04T09:03:48;17.63;;;14.00;;
21233;SDS011;10774;42.178;26.578;2023-12-04T09:06:14;17.67;;;14.20;;
21233;SDS011;10774;42.178;26.578;2023-12-04T09:08:40;10.82;;;8.60;;
21233;SDS011;10774;42.178;26.578;2023-12-04T09:11:06;11.20;;;8.77;;
21233;SDS011;10774;42.178;26.578;2023-12-04T09:13:32;10.75;;;8.75;;
21233;SDS011;10774;42.178;26.578;2023-12-04T09:15:59;12.60;;;10.10;;
21233;SDS011;10774;42.178;26.578;2023-12-04T09:18:24;10.23;;;7.85;;
21233;SDS011;10774;42.178;26.578;2023-12-04T09:20:50;151.77;;;107.03;;
21233;SDS011;10774;42.178;26.578;2023-12-04T09:23:15;206.85;;;150.10;;
21233;SDS011;10774;42.178;26.578;2023-12-04T09:25:41;17.25;;;13.30;;
21233;SDS011;10774;42.178;26.578;2023-12-04T09:28:06;10.73;;;8.35;;
21233;SDS011;10774;42.178;26.578;2023-12-04T09:30:33;12.30;;;8.73;;
21233;SDS011;10774;42.178;26.578;2023-12-04T09:33:00;16.70;;;10.95;;
21233;SDS011;10774;42.178;26.578;2023-12-04T09:35:26;12.98;;;10.55;;
21233;SDS011;10774;42.178;26.578;2023-12-04T09:37:51;15.75;;;11.95;;
21233;SDS011;10774;42.178;26.578;2023-12-04T09:40:17;17.60;;;14.18;;
21233;SDS011;10774;42.178;26.578;2023-12-04T09:42:43;17.75;;;15.55;;
21233;SDS011;10774;42.178;26.578;2023-12-04T09:45:08;15.68;;;13.02;;
21233;SDS011;10774;42.178;26.578;2023-12-04T09:47:34;12.90;;;10.35;;
21233;SDS011;10774;42.178;26.578;2023-12-04T09:50:00;14.02;;;11.02;;
21233;SDS011;10774;42.178;26.578;2023-12-04T09:52:29;25.10;;;16.67;;
21233;SDS011;10774;42.178;26.578;2023-12-04T09:54:55;27.77;;;16.45;;
21233;SDS011;10774;42.178;26.578;2023-12-04T09:57:21;17.92;;;12.05;;
21233;SDS011;10774;42.178;26.578;2023-12-04T09:59:49;18.67;;;13.60;;
21233;SDS011;10774;42.178;26.578;2023-12-04T10:02:16;28.38;;;18.65;;
21233;SDS011;10774;42.178;26.578;2023-12-04T10:04:42;15.75;;;11.73;;
21233;SDS011;10774;42.178;26.578;2023-12-04T10:07:08;9.68;;;8.05;;
21233;SDS011;10774;42.178;26.578;2023-12-04T10:09:33;9.85;;;8.13;;
21233;SDS011;10774;42.178;26.578;2023-12-04T10:11:59;10.30;;;8.00;;
21233;SDS011;10774;42.178;26.578;2023-12-04T10:14:24;10.00;;;7.72;;
21233;SDS011;10774;42.178;26.578;2023-12-04T10:16:50;7.90;;;6.50;;
21233;SDS011;10774;42.178;26.578;2023-12-04T10:19:27;9.93;;;8.27;;
21233;SDS011;10774;42.178;26.578;2023-12-04T10:21:56;8.40;;;5.97;;
21233;SDS011;10774;42.178;26.578;2023-12-04T10:26:55;12.45;;;9.05;;
21233;SDS011;10774;42.178;26.578;2023-12-04T10:29:21;11.23;;;9.10;;
21233;SDS011;10774;42.178;26.578;2023-12-04T10:31:47;10.57;;;8.00;;
21233;SDS011;10774;42.178;26.578;2023-12-04T10:34:15;14.75;;;11.20;;
21233;SDS011;10774;42.178;26.578;2023-12-04T10:36:41;20.25;;;14.02;;
21233;SDS011;10774;42.178;26.578;2023-12-04T10:39:07;14.77;;;11.07;;
21233;SDS011;10774;42.178;26.578;2023-12-04T10:41:32;9.25;;;7.53;;
21233;SDS011;10774;42.178;26.578;2023-12-04T10:43:58;10.93;;;8.43;;
21233;SDS011;10774;42.178;26.578;2023-12-04T10:46:25;15.50;;;10.60;;
21233;SDS011;10774;42.178;26.578;2023-12-04T10:48:51;10.70;;;7.43;;
21233;SDS011;10774;42.178;26.578;2023-12-04T10:51:18;10.80;;;7.95;;
21233;SDS011;10774;42.178;26.578;2023-12-04T10:53:44;10.32;;;7.55;;
21233;SDS011;10774;42.178;26.578;2023-12-04T10:56:10;13.73;;;9.23;;
21233;SDS011;10774;42.178;26.578;2023-12-04T10:58:43;19.70;;;11.48;;
21233;SDS011;10774;42.178;26.578;2023-12-04T11:01:14;9.30;;;7.82;;
21233;SDS011;10774;42.178;26.578;2023-12-04T11:03:58;10.35;;;7.70;;
21233;SDS011;10774;42.178;26.578;2023-12-04T11:06:28;9.48;;;6.97;;
21233;SDS011;10774;42.178;26.578;2023-12-04T11:08:56;9.50;;;7.65;;
21233;SDS011;10774;42.178;26.578;2023-12-04T11:11:27;8.93;;;7.40;;
21233;SDS011;10774;42.178;26.578;2023-12-04T11:13:59;11.85;;;9.18;;
21233;SDS011;10774;42.178;26.578;2023-12-04T11:16:47;15.88;;;10.55;;
21233;SDS011;10774;42.178;26.578;2023-12-04T11:19:27;19.52;;;13.43;;
21233;SDS011;10774;42.178;26.578;2023-12-04T11:22:00;26.77;;;17.67;;
21233;SDS011;10774;42.178;26.578;2023-12-04T11:24:27;33.38;;;20.58;;
21233;SDS011;10774;42.178;26.578;2023-12-04T11:26:52;16.27;;;10.57;;
21233;SDS011;10774;42.178;26.578;2023-12-04T11:29:19;15.45;;;9.23;;
21233;SDS011;10774;42.178;26.578;2023-12-04T11:31:45;9.38;;;7.50;;
21233;SDS011;10774;42.178;26.578;2023-12-04T11:34:11;12.05;;;8.30;;
21233;SDS011;10774;42.178;26.578;2023-12-04T11:36:37;15.18;;;10.15;;
21233;SDS011;10774;42.178;26.578;2023-12-04T11:39:03;23.85;;;15.02;;
21233;SDS011;10774;42.178;26.578;2023-12-04T11:41:35;22.02;;;15.48;;
21233;SDS011;10774;42.178;26.578;2023-12-04T11:44:02;18.42;;;12.95;;
21233;SDS011;10774;42.178;26.578;2023-12-04T11:46:28;19.65;;;14.70;;
21233;SDS011;10774;42.178;26.578;2023-12-04T11:49:40;20.58;;;14.65;;
21233;SDS011;10774;42.178;26.578;2023-12-04T11:51:50;17.20;;;13.07;;
21233;SDS011;10774;42.178;26.578;2023-12-04T11:54:19;13.18;;;8.93;;
21233;SDS011;10774;42.178;26.578;2023-12-04T11:59:51;11.50;;;8.00;;
21233;SDS011;10774;42.178;26.578;2023-12-04T12:05:21;8.50;;;6.82;;
21233;SDS011;10774;42.178;26.578;2023-12-04T12:07:47;9.65;;;7.82;;
21233;SDS011;10774;42.178;26.578;2023-12-04T12:10:14;8.05;;;6.22;;
21233;SDS011;10774;42.178;26.578;2023-12-04T12:12:40;7.50;;;6.35;;
21233;SDS011;10774;42.178;26.578;2023-12-04T12:15:13;7.82;;;6.38;;
21233;SDS011;10774;42.178;26.578;2023-12-04T12:17:41;11.55;;;8.57;;
21233;SDS011;10774;42.178;26.578;2023-12-04T12:20:07;17.27;;;10.55;;
21233;SDS011;10774;42.178;26.578;2023-12-04T12:22:34;18.17;;;9.48;;
21233;SDS011;10774;42.178;26.578;2023-12-04T12:25:00;12.38;;;6.53;;
21233;SDS011;10774;42.178;26.578;2023-12-04T12:27:30;8.75;;;6.85;;
21233;SDS011;10774;42.178;26.578;2023-12-04T12:29:56;7.65;;;6.55;;
21233;SDS011;10774;42.178;26.578;2023-12-04T12:32:21;9.60;;;6.22;;
21233;SDS011;10774;42.178;26.578;2023-12-04T12:34:47;9.15;;;6.30;;
21233;SDS011;10774;42.178;26.578;2023-12-04T12:37:12;10.65;;;7.63;;
21233;SDS011;10774;42.178;26.578;2023-12-04T12:39:38;11.40;;;8.50;;
21233;SDS011;10774;42.178;26.578;2023-12-04T12:42:04;13.98;;;9.35;;
21233;SDS011;10774;42.178;26.578;2023-12-04T12:44:37;13.77;;;9.18;;
21233;SDS011;10774;42.178;26.578;2023-12-04T12:47:06;18.70;;;11.95;;
21233;SDS011;10774;42.178;26.578;2023-12-04T12:49:35;10.98;;;8.93;;
21233;SDS011;10774;42.178;26.578;2023-12-04T12:52:02;7.88;;;6.28;;
21233;SDS011;10774;42.178;26.578;2023-12-04T12:54:33;9.68;;;6.75;;
21233;SDS011;10774;42.178;26.578;2023-12-04T12:57:01;13.05;;;9.90;;
21233;SDS011;10774;42.178;26.578;2023-12-04T12:59:27;12.40;;;9.18;;
21233;SDS011;10774;42.178;26.578;2023-12-04T13:01:53;9.43;;;7.47;;
21233;SDS011;10774;42.178;26.578;2023-12-04T13:04:18;12.90;;;10.20;;
21233;SDS011;10774;42.178;26.578;2023-12-04T13:06:44;12.93;;;9.30;;
21233;SDS011;10774;42.178;26.578;2023-12-04T13:09:11;11.73;;;9.02;;
21233;SDS011;10774;42.178;26.578;2023-12-04T13:11:43;13.10;;;9.55;;
21233;SDS011;10774;42.178;26.578;2023-12-04T13:14:11;18.23;;;12.13;;
21233;SDS011;10774;42.178;26.578;2023-12-04T13:16:37;14.25;;;10.13;;
21233;SDS011;10774;42.178;26.578;2023-12-04T13:19:02;12.10;;;8.27;;
21233;SDS011;10774;42.178;26.578;2023-12-04T13:21:28;10.65;;;6.57;;
21233;SDS011;10774;42.178;26.578;2023-12-04T13:23:54;12.88;;;8.07;;
21233;SDS011;10774;42.178;26.578;2023-12-04T13:26:20;13.60;;;9.35;;
21233;SDS011;10774;42.178;26.578;2023-12-04T13:28:46;25.15;;;13.40;;
21233;SDS011;10774;42.178;26.578;2023-12-04T13:31:12;24.15;;;14.85;;
21233;SDS011;10774;42.178;26.578;2023-12-04T13:33:38;22.65;;;15.77;;
21233;SDS011;10774;42.178;26.578;2023-12-04T13:36:04;15.38;;;10.27;;
21233;SDS011;10774;42.178;26.578;2023-12-04T13:38:29;24.27;;;15.15;;
21233;SDS011;10774;42.178;26.578;2023-12-04T13:40:55;19.25;;;12.70;;
21233;SDS011;10774;42.178;26.578;2023-12-04T13:43:47;19.30;;;12.13;;
21233;SDS011;10774;42.178;26.578;2023-12-04T13:46:15;29.30;;;15.90;;
21233;SDS011;10774;42.178;26.578;2023-12-04T13:48:40;30.10;;;17.48;;
21233;SDS011;10774;42.178;26.578;2023-12-04T13:51:09;23.23;;;15.13;;
21233;SDS011;10774;42.178;26.578;2023-12-04T13:53:35;19.50;;;14.77;;
21233;SDS011;10774;42.178;26.578;2023-12-04T13:56:04;15.15;;;10.60;;
21233;SDS011;10774;42.178;26.578;2023-12-04T13:58:48;14.85;;;10.77;;
21233;SDS011;10774;42.178;26.578;2023-12-04T14:01:24;15.80;;;11.30;;
21233;SDS011;10774;42.178;26.578;2023-12-04T14:03:53;16.13;;;11.35;;
21233;SDS011;10774;42.178;26.578;2023-12-04T14:06:21;15.30;;;11.02;;
21233;SDS011;10774;42.178;26.578;2023-12-04T14:08:48;14.60;;;9.88;;
21233;SDS011;10774;42.178;26.578;2023-12-04T14:18:29;16.85;;;10.90;;
21233;SDS011;10774;42.178;26.578;2023-12-04T14:20:55;19.70;;;13.88;;
21233;SDS011;10774;42.178;26.578;2023-12-04T14:23:21;20.38;;;13.77;;
21233;SDS011;10774;42.178;26.578;2023-12-04T14:25:47;29.67;;;16.48;;
21233;SDS011;10774;42.178;26.578;2023-12-04T14:28:12;33.28;;;20.85;;
21233;SDS011;10774;42.178;26.578;2023-12-04T14:30:38;34.63;;;24.45;;
21233;SDS011;10774;42.178;26.578;2023-12-04T14:33:03;32.58;;;21.67;;